createdAt,value
2023-03-26T00:01:48.015Z,24.47
2023-03-26T00:04:27.895Z,24.83
2023-03-26T00:06:54.592Z,23.02
2023-03-26T00:09:21.436Z,18.80
2023-03-26T00:11:48.525Z,27.38
2023-03-26T00:14:18.001Z,21.23
2023-03-26T00:16:45.577Z,27.85
2023-03-26T00:19:12.812Z,22.02
2023-03-26T00:21:39.872Z,26.63
2023-03-26T00:24:15.110Z,17.75
2023-03-26T00:26:42.275Z,23.03
2023-03-26T00:29:10.538Z,16.23
2023-03-26T00:31:41.024Z,20.88
2023-03-26T00:34:08.526Z,25.52
2023-03-26T00:36:36.233Z,17.80
2023-03-26T00:39:06.142Z,23.47
2023-03-26T00:41:37.466Z,20.10
2023-03-26T00:44:04.576Z,22.73
2023-03-26T00:46:31.851Z,24.05
2023-03-26T00:48:59.939Z,21.08
2023-03-26T00:51:27.958Z,17.97
2023-03-26T00:53:55.098Z,19.77
2023-03-26T00:56:21.843Z,21.55
2023-03-26T00:58:50.257Z,23.52
2023-03-26T01:01:28.552Z,19.52
2023-03-26T01:04:08.648Z,27.27
2023-03-26T01:06:39.037Z,27.90
2023-03-26T01:09:15.978Z,25.58
2023-03-26T01:11:43.160Z,25.55
2023-03-26T01:14:26.987Z,28.17
2023-03-26T01:16:56.341Z,22.53
2023-03-26T01:19:34.214Z,22.58
2023-03-26T01:22:00.820Z,26.63
2023-03-26T01:24:27.417Z,26.20
2023-03-26T01:26:58.995Z,22.90
2023-03-26T01:29:31.721Z,28.87
2023-03-26T01:32:17.347Z,19.90
2023-03-26T01:35:02.975Z,23.40
2023-03-26T01:37:53.913Z,19.77
2023-03-26T01:40:28.491Z,22.42
2023-03-26T01:42:58.669Z,14.87
2023-03-26T01:45:31.251Z,23.52
2023-03-26T01:47:58.412Z,25.75
2023-03-26T01:50:25.021Z,22.88
2023-03-26T01:52:51.636Z,27.63
2023-03-26T01:55:19.329Z,20.63
2023-03-26T01:58:06.942Z,22.58
2023-03-26T02:00:42.218Z,17.77
2023-03-26T02:03:30.160Z,21.15
2023-03-26T02:05:57.983Z,15.88
2023-03-26T02:08:39.605Z,25.33
2023-03-26T02:11:11.843Z,23.73
2023-03-26T02:13:41.031Z,18.85
2023-03-26T02:16:12.346Z,19.52
2023-03-26T02:18:41.774Z,18.63
2023-03-26T02:21:20.431Z,23.93
2023-03-26T02:23:50.821Z,16.70
2023-03-26T02:26:19.968Z,13.90
2023-03-26T02:28:46.575Z,13.70
2023-03-26T02:31:17.240Z,11.68
2023-03-26T02:33:44.856Z,13.77
2023-03-26T02:36:14.072Z,14.02
2023-03-26T02:38:41.785Z,11.88
2023-03-26T02:41:08.411Z,12.32
2023-03-26T02:43:35.211Z,8.43
2023-03-26T02:46:01.946Z,18.97
2023-03-26T02:48:28.515Z,11.50
2023-03-26T02:50:55.190Z,11.05
2023-03-26T02:53:24.293Z,12.85
2023-03-26T02:55:53.748Z,14.38
2023-03-26T02:58:20.717Z,10.13
2023-03-26T03:00:48.035Z,10.80
2023-03-26T03:03:17.311Z,11.10
2023-03-26T03:05:44.068Z,11.82
2023-03-26T03:08:10.892Z,8.55
2023-03-26T03:10:38.003Z,9.83
2023-03-26T03:13:08.058Z,12.32
2023-03-26T03:15:35.106Z,9.88
2023-03-26T03:18:02.637Z,12.15
2023-03-26T03:20:30.464Z,9.23
2023-03-26T03:22:57.147Z,9.67
2023-03-26T03:25:26.112Z,8.20
2023-03-26T03:27:54.058Z,8.70
2023-03-26T03:30:21.072Z,13.65
2023-03-26T03:32:47.988Z,10.38
2023-03-26T03:35:15.014Z,12.80
2023-03-26T03:37:42.293Z,11.75
2023-03-26T03:40:11.150Z,11.30
2023-03-26T03:42:38.145Z,8.27
2023-03-26T03:45:06.399Z,11.20
2023-03-26T03:47:33.061Z,7.97
2023-03-26T03:50:00.357Z,9.85
2023-03-26T03:52:30.670Z,8.18
2023-03-26T03:55:00.554Z,7.13
2023-03-26T03:57:28.634Z,10.00
2023-03-26T03:59:58.521Z,10.43
2023-03-26T04:02:26.819Z,4.68
2023-03-26T04:04:54.483Z,3.60
2023-03-26T04:07:21.327Z,4.32
2023-03-26T04:09:48.232Z,4.38
2023-03-26T04:12:15.318Z,2.23
2023-03-26T04:14:42.721Z,1.98
2023-03-26T04:17:10.555Z,3.78
2023-03-26T04:19:37.846Z,2.80
2023-03-26T04:22:06.850Z,2.53
2023-03-26T04:24:42.379Z,2.37
2023-03-26T04:27:14.301Z,4.03
2023-03-26T04:29:43.098Z,3.65
2023-03-26T04:32:21.955Z,3.92
2023-03-26T04:34:48.486Z,2.53
2023-03-26T04:37:24.956Z,3.63
2023-03-26T04:39:51.528Z,4.40
2023-03-26T04:42:20.301Z,2.38
2023-03-26T04:44:50.848Z,4.20
2023-03-26T04:47:18.579Z,7.35
2023-03-26T04:49:47.454Z,5.43
2023-03-26T04:52:15.293Z,3.85
2023-03-26T04:54:44.412Z,1.73
2023-03-26T04:57:39.451Z,2.28
2023-03-26T05:00:18.874Z,1.77
2023-03-26T05:02:49.716Z,4.27
2023-03-26T05:05:18.862Z,1.33
2023-03-26T05:07:48.044Z,2.72
2023-03-26T05:10:16.131Z,3.10
2023-03-26T05:12:42.732Z,3.50
2023-03-26T05:15:11.470Z,2.70
2023-03-26T05:17:41.651Z,3.75
2023-03-26T05:20:20.802Z,4.45
2023-03-26T05:22:49.698Z,3.97
2023-03-26T05:25:17.490Z,4.28
2023-03-26T05:27:44.674Z,9.40
2023-03-26T05:30:18.626Z,3.97
2023-03-26T05:32:48.843Z,3.03
2023-03-26T05:35:19.025Z,4.82
2023-03-26T05:37:47.411Z,3.63
2023-03-26T05:40:17.265Z,3.57
2023-03-26T05:42:44.676Z,3.42
2023-03-26T05:45:13.955Z,1.63
2023-03-26T05:47:40.773Z,4.30
2023-03-26T05:50:08.813Z,1.77
2023-03-26T05:52:36.319Z,2.70
2023-03-26T05:55:03.546Z,2.83
2023-03-26T05:57:31.441Z,1.42
2023-03-26T06:00:00.235Z,3.28
2023-03-26T06:02:27.127Z,2.28
2023-03-26T06:04:53.794Z,2.10
2023-03-26T06:07:21.746Z,3.13
2023-03-26T06:09:49.520Z,1.33
2023-03-26T06:12:16.241Z,3.67
2023-03-26T06:14:43.202Z,2.28
2023-03-26T06:17:10.397Z,3.07
2023-03-26T06:19:37.184Z,7.38
2023-03-26T06:22:04.990Z,2.15
2023-03-26T06:24:32.813Z,4.65
2023-03-26T06:26:59.489Z,1.58
2023-03-26T06:29:26.126Z,1.87
2023-03-26T06:31:52.909Z,4.13
2023-03-26T06:34:19.725Z,2.65
2023-03-26T06:36:48.974Z,4.60
2023-03-26T06:39:16.087Z,1.60
2023-03-26T06:41:42.759Z,1.80
2023-03-26T06:44:09.549Z,3.92
2023-03-26T06:46:36.445Z,3.08
2023-03-26T06:49:03.261Z,4.43
2023-03-26T06:51:30.047Z,2.63
2023-03-26T06:53:56.962Z,4.77
2023-03-26T06:56:23.583Z,1.55
2023-03-26T06:58:50.173Z,1.63
2023-03-26T07:01:16.849Z,3.05
2023-03-26T07:03:43.489Z,4.05
2023-03-26T07:06:10.277Z,3.50
2023-03-26T07:08:36.913Z,6.72
2023-03-26T07:11:03.608Z,1.85
2023-03-26T07:13:30.220Z,5.68
2023-03-26T07:15:57.070Z,3.20
2023-03-26T07:18:23.706Z,3.13
2023-03-26T07:20:50.792Z,4.18
2023-03-26T07:23:20.789Z,1.83
2023-03-26T07:25:48.831Z,3.28
2023-03-26T07:28:33.498Z,2.13
2023-03-26T07:31:10.053Z,1.80
2023-03-26T07:33:52.587Z,2.05
2023-03-26T07:36:23.205Z,2.85
2023-03-26T07:38:53.296Z,3.33
2023-03-26T07:41:26.387Z,3.58
2023-03-26T07:44:07.913Z,0.80
2023-03-26T07:46:37.009Z,1.52
2023-03-26T07:49:05.268Z,2.33
2023-03-26T07:51:32.765Z,1.50
2023-03-26T07:54:00.729Z,3.42
2023-03-26T07:56:39.723Z,1.43
2023-03-26T07:59:25.620Z,1.65
2023-03-26T08:02:16.591Z,2.50
2023-03-26T08:04:48.636Z,5.22
2023-03-26T08:07:28.573Z,1.23
2023-03-26T08:10:26.476Z,1.03
2023-03-26T08:13:10.374Z,2.13
2023-03-26T08:15:46.003Z,1.23
2023-03-26T08:18:38.770Z,1.48
2023-03-26T08:21:27.329Z,0.98
2023-03-26T08:24:14.192Z,1.27
2023-03-26T08:27:10.106Z,1.77
2023-03-26T08:30:03.013Z,2.08
2023-03-26T08:32:30.163Z,0.80
2023-03-26T08:34:57.746Z,0.90
2023-03-26T08:37:24.434Z,2.50
2023-03-26T08:39:51.409Z,1.25
2023-03-26T08:42:40.169Z,1.70
2023-03-26T08:45:25.713Z,1.08
2023-03-26T08:48:11.252Z,1.25
2023-03-26T08:51:07.845Z,1.13
2023-03-26T08:53:49.971Z,0.98
2023-03-26T08:57:03.972Z,2.35
2023-03-26T09:00:01.308Z,2.42
2023-03-26T09:02:35.169Z,2.95
2023-03-26T09:05:58.436Z,1.10
2023-03-26T09:08:54.483Z,0.60
2023-03-26T09:11:52.356Z,1.13
2023-03-26T09:14:42.640Z,1.70
2023-03-26T09:17:44.892Z,0.60
2023-03-26T09:20:36.538Z,0.73
2023-03-26T09:23:08.947Z,1.15
2023-03-26T09:25:47.773Z,2.08
2023-03-26T09:28:51.904Z,2.00
2023-03-26T09:31:32.154Z,1.20
2023-03-26T09:34:30.521Z,3.67
2023-03-26T09:37:25.689Z,2.28
2023-03-26T09:40:15.353Z,2.05
2023-03-26T09:42:44.796Z,1.27
2023-03-26T09:45:17.678Z,1.15
2023-03-26T09:47:50.333Z,2.77
2023-03-26T09:50:34.414Z,1.98
2023-03-26T09:53:07.103Z,1.52
2023-03-26T09:55:45.006Z,2.35
2023-03-26T09:58:42.410Z,1.88
2023-03-26T10:01:21.289Z,3.37
2023-03-26T10:04:09.264Z,2.25
2023-03-26T10:06:59.955Z,2.70
2023-03-26T10:09:46.168Z,1.52
2023-03-26T10:12:16.881Z,2.40
2023-03-26T10:15:01.493Z,3.37
2023-03-26T10:17:38.941Z,6.43
2023-03-26T10:20:17.866Z,4.22
2023-03-26T10:23:24.459Z,3.15
2023-03-26T10:26:26.385Z,4.30
2023-03-26T10:29:24.310Z,3.73
2023-03-26T10:32:01.022Z,2.95
2023-03-26T10:35:04.757Z,4.25
2023-03-26T10:37:57.016Z,5.13
2023-03-26T10:40:43.045Z,2.72
2023-03-26T10:43:28.277Z,3.70
2023-03-26T10:46:00.942Z,3.03
2023-03-26T10:48:49.159Z,3.88
2023-03-26T10:51:27.747Z,3.25
2023-03-26T10:54:06.179Z,5.30
2023-03-26T10:56:38.452Z,5.07
2023-03-26T10:59:12.936Z,3.00
2023-03-26T11:01:58.533Z,4.13
2023-03-26T11:04:31.321Z,3.75
2023-03-26T11:07:16.667Z,3.85
2023-03-26T11:09:54.163Z,4.20
2023-03-26T11:12:33.816Z,5.95
2023-03-26T11:15:38.272Z,4.35
2023-03-26T11:18:10.859Z,4.55
2023-03-26T11:20:46.441Z,4.35
2023-03-26T11:23:26.706Z,4.90
2023-03-26T11:26:16.772Z,5.00
2023-03-26T11:29:32.569Z,3.55
2023-03-26T11:32:05.350Z,5.93
2023-03-26T11:34:42.059Z,3.70
2023-03-26T11:37:21.379Z,5.73
2023-03-26T11:39:55.218Z,6.85
2023-03-26T11:42:25.317Z,5.40
2023-03-26T11:45:02.647Z,5.45
2023-03-26T11:47:38.918Z,5.72
2023-03-26T11:50:08.350Z,5.50
2023-03-26T11:52:36.136Z,8.27
2023-03-26T11:55:03.326Z,5.55
2023-03-26T11:57:33.520Z,4.93
2023-03-26T12:00:17.689Z,4.72
2023-03-26T12:02:47.019Z,4.10
2023-03-26T12:05:20.468Z,7.00
2023-03-26T12:07:51.155Z,2.85
2023-03-26T12:10:39.239Z,5.68
2023-03-26T12:13:19.432Z,4.60
2023-03-26T12:15:46.106Z,3.30
2023-03-26T12:18:25.992Z,5.03
2023-03-26T12:21:22.943Z,4.82
2023-03-26T12:24:05.692Z,5.05
2023-03-26T12:26:41.395Z,5.38
2023-03-26T12:29:18.985Z,6.97
2023-03-26T12:31:56.421Z,6.80
2023-03-26T12:34:43.440Z,6.82
2023-03-26T12:37:38.072Z,8.50
2023-03-26T12:40:30.607Z,8.98
2023-03-26T12:44:49.934Z,9.67
2023-03-26T12:47:55.260Z,9.23
2023-03-26T12:48:48.223Z,8.13
2023-03-26T12:51:28.934Z,14.05
2023-03-26T12:54:03.745Z,7.68
2023-03-26T12:56:50.031Z,7.37
2023-03-26T13:00:08.862Z,9.30
2023-03-26T13:02:53.299Z,7.68
2023-03-26T13:05:42.312Z,10.70
2023-03-26T13:08:21.604Z,7.57
2023-03-26T13:10:54.746Z,14.97
2023-03-26T13:13:56.721Z,7.53
2023-03-26T13:16:35.329Z,7.35
2023-03-26T13:19:27.143Z,8.45
2023-03-26T13:22:10.117Z,9.57
2023-03-26T13:25:14.078Z,12.17
2023-03-26T13:27:52.685Z,11.52
2023-03-26T13:30:41.885Z,15.77
2023-03-26T13:33:31.751Z,11.60
2023-03-26T13:36:31.002Z,20.70
2023-03-26T13:39:50.265Z,7.93
2023-03-26T13:42:37.792Z,15.10
2023-03-26T13:45:41.988Z,7.72
2023-03-26T13:48:23.795Z,13.43
2023-03-26T13:51:15.441Z,14.50
2023-03-26T13:53:50.609Z,10.30
2023-03-26T13:56:23.772Z,9.98
2023-03-26T13:58:56.356Z,14.02
2023-03-26T14:01:35.519Z,12.70
2023-03-26T14:04:19.946Z,17.48
2023-03-26T14:07:18.664Z,17.13
2023-03-26T14:09:48.655Z,14.25
2023-03-26T14:12:22.040Z,21.10
2023-03-26T14:15:02.132Z,13.23
2023-03-26T14:17:54.651Z,11.10
2023-03-26T14:20:51.532Z,13.97
2023-03-26T14:23:49.063Z,13.45
2023-03-26T14:26:58.354Z,13.73
2023-03-26T14:29:33.230Z,15.98
2023-03-26T14:32:24.227Z,14.55
2023-03-26T14:35:32.014Z,19.23
2023-03-26T14:38:09.422Z,12.55
2023-03-26T14:41:19.908Z,15.35
2023-03-26T14:43:55.654Z,16.50
2023-03-26T14:46:45.642Z,13.95
2023-03-26T14:49:37.700Z,9.10
2023-03-26T14:52:11.578Z,10.50
2023-03-26T14:54:45.791Z,11.07
2023-03-26T14:57:30.223Z,13.20
2023-03-26T15:00:28.936Z,11.05
2023-03-26T15:03:13.573Z,13.17
2023-03-26T15:06:23.113Z,15.07
2023-03-26T15:09:30.053Z,16.25
2023-03-26T15:12:12.512Z,10.52
2023-03-26T15:15:05.334Z,10.85
2023-03-26T15:18:02.765Z,9.53
2023-03-26T15:20:50.244Z,12.30
2023-03-26T15:23:47.358Z,8.75
2023-03-26T15:26:47.059Z,9.10
2023-03-26T15:30:11.291Z,9.55
2023-03-26T15:32:49.824Z,6.53
2023-03-26T15:35:34.887Z,7.45
2023-03-26T15:38:26.371Z,8.20
2023-03-26T15:41:04.781Z,4.82
2023-03-26T15:44:23.527Z,7.90
2023-03-26T15:47:16.311Z,11.00
2023-03-26T15:50:09.565Z,14.13
2023-03-26T15:53:23.598Z,5.82
2023-03-26T15:56:14.435Z,14.30
2023-03-26T15:59:12.217Z,7.63
2023-03-26T16:02:23.510Z,7.80
2023-03-26T16:05:38.658Z,9.25
2023-03-26T16:08:53.196Z,8.63
2023-03-26T16:11:59.190Z,6.20
2023-03-26T16:14:51.827Z,6.20
2023-03-26T16:17:24.440Z,6.17
2023-03-26T16:20:20.084Z,3.70
2023-03-26T16:30:09.833Z,9.02
2023-03-26T16:32:54.892Z,4.30
2023-03-26T16:39:58.693Z,9.63
2023-03-26T16:43:07.313Z,6.30
2023-03-26T16:45:46.080Z,10.73
2023-03-26T16:48:32.810Z,12.10
2023-03-26T16:55:27.348Z,6.95
2023-03-26T16:59:04.867Z,7.35
2023-03-26T17:01:41.385Z,5.65
2023-03-26T17:04:48.983Z,6.30
2023-03-26T17:07:51.458Z,7.20
2023-03-26T17:10:45.700Z,4.20
2023-03-26T17:17:23.503Z,6.22
2023-03-26T17:20:16.136Z,6.53
2023-03-26T17:23:13.293Z,4.40
2023-03-26T17:26:37.468Z,6.28
2023-03-26T17:29:13.858Z,7.20
2023-03-26T17:31:54.385Z,7.88
2023-03-26T17:34:52.107Z,5.73
2023-03-26T17:37:22.023Z,10.75
2023-03-26T17:39:57.879Z,8.15
2023-03-26T17:42:36.162Z,8.10
2023-03-26T17:45:12.844Z,4.55
2023-03-26T17:47:48.427Z,5.87
2023-03-26T17:50:26.784Z,5.57
2023-03-26T17:53:41.113Z,6.43
2023-03-26T17:59:19.204Z,10.90
2023-03-26T18:05:55.625Z,4.60
2023-03-26T18:09:08.068Z,5.07
2023-03-26T18:12:20.128Z,5.85
2023-03-26T18:15:29.784Z,4.68
2023-03-26T18:18:28.420Z,7.53
2023-03-26T18:24:29.996Z,10.27
2023-03-26T18:39:46.041Z,4.72
2023-03-26T18:42:55.316Z,4.28
2023-03-26T18:45:38.696Z,7.10
2023-03-26T18:48:22.774Z,4.97
2023-03-26T18:51:05.189Z,6.77
2023-03-26T18:54:01.848Z,6.72
2023-03-26T18:56:41.611Z,7.75
2023-03-26T18:59:40.885Z,8.73
2023-03-26T19:02:20.947Z,9.00
2023-03-26T19:05:06.724Z,6.90
2023-03-26T19:07:45.806Z,5.65
2023-03-26T19:10:45.467Z,11.63
2023-03-26T19:13:35.485Z,9.55
2023-03-26T19:16:21.902Z,7.10
2023-03-26T19:19:03.613Z,4.93
2023-03-26T19:22:18.162Z,7.45
2023-03-26T19:25:05.691Z,4.13
2023-03-26T19:27:38.487Z,5.60
2023-03-26T19:30:28.620Z,6.45
2023-03-26T19:33:15.976Z,5.07
2023-03-26T19:36:28.596Z,6.25
2023-03-26T19:39:34.726Z,10.85
2023-03-26T19:42:20.711Z,6.57
2023-03-26T19:48:15.265Z,7.27
2023-03-26T19:51:12.079Z,7.30
2023-03-26T19:53:59.632Z,7.65
2023-03-26T19:56:44.385Z,6.55
2023-03-26T20:02:41.549Z,7.10
2023-03-26T20:05:42.375Z,3.10
2023-03-26T20:12:23.313Z,6.82
2023-03-26T20:15:25.977Z,6.90
2023-03-26T20:18:02.673Z,4.67
2023-03-26T20:20:56.440Z,4.88
2023-03-26T20:24:22.061Z,8.88
2023-03-26T20:31:51.534Z,7.10
2023-03-26T20:34:22.844Z,5.90
2023-03-26T20:37:01.184Z,6.90
2023-03-26T20:39:54.978Z,5.82
2023-03-26T20:47:00.295Z,5.45
2023-03-26T20:49:38.920Z,7.37
2023-03-26T20:52:38.553Z,8.38
2023-03-26T20:55:32.982Z,6.13
2023-03-26T20:58:31.376Z,4.88
2023-03-26T21:01:06.227Z,4.30
2023-03-26T21:03:46.703Z,7.70
2023-03-26T21:09:53.744Z,4.50
2023-03-26T21:13:27.431Z,9.35
2023-03-26T21:19:58.155Z,4.83
2023-03-26T21:23:09.958Z,5.53
2023-03-26T21:26:20.660Z,4.88
2023-03-26T21:29:13.277Z,6.10
2023-03-26T21:32:08.500Z,6.78
2023-03-26T21:41:49.160Z,6.03
2023-03-26T21:44:51.018Z,3.05
2023-03-26T21:47:30.829Z,2.88
2023-03-26T21:50:01.889Z,5.60
2023-03-26T21:52:59.272Z,7.50
2023-03-26T21:55:26.783Z,6.72
2023-03-26T21:58:16.841Z,6.57
2023-03-26T22:01:06.328Z,6.15
2023-03-26T22:08:07.178Z,6.43
2023-03-26T22:10:33.943Z,3.45
2023-03-26T22:13:00.698Z,5.95
2023-03-26T22:15:30.921Z,7.15
2023-03-26T22:18:02.545Z,1.67
2023-03-26T22:20:32.123Z,6.55
2023-03-26T22:23:00.240Z,4.40
2023-03-26T22:25:27.598Z,5.47
2023-03-26T22:27:55.372Z,6.10
2023-03-26T22:30:21.981Z,8.87
2023-03-26T22:33:06.318Z,5.20
2023-03-26T22:35:48.580Z,6.53
2023-03-26T22:38:20.006Z,8.43
2023-03-26T22:40:56.027Z,3.70
2023-03-26T22:43:25.967Z,4.70
2023-03-26T22:45:56.266Z,4.25
2023-03-26T22:48:23.966Z,5.07
2023-03-26T22:51:14.964Z,4.13
2023-03-26T22:53:55.672Z,2.88
2023-03-26T22:56:48.594Z,5.47
2023-03-26T22:59:34.347Z,4.68
2023-03-26T23:02:01.296Z,9.60
2023-03-26T23:04:31.569Z,7.43
2023-03-26T23:07:01.944Z,6.07
2023-03-26T23:09:32.753Z,5.20
2023-03-26T23:12:02.090Z,3.50
2023-03-26T23:14:29.140Z,9.13
2023-03-26T23:17:02.001Z,4.50
2023-03-26T23:19:31.314Z,10.02
2023-03-26T23:21:57.950Z,4.27
2023-03-26T23:24:27.878Z,5.65
2023-03-26T23:26:54.606Z,7.28
2023-03-26T23:29:23.945Z,7.28
2023-03-26T23:31:53.277Z,5.45
2023-03-26T23:34:21.072Z,5.77
2023-03-26T23:36:48.073Z,8.27
2023-03-26T23:39:14.614Z,7.43
2023-03-26T23:41:41.447Z,5.90
2023-03-26T23:44:08.342Z,10.15
2023-03-26T23:46:35.152Z,6.87
2023-03-26T23:49:04.900Z,5.63
2023-03-26T23:51:32.735Z,6.53
2023-03-26T23:54:01.068Z,6.43
2023-03-26T23:56:29.082Z,4.90
2023-03-26T23:59:01.827Z,8.27
